createdAt,value
2022-12-11T00:01:00.177Z,97685.94
2022-12-11T00:03:28.298Z,97698.44
2022-12-11T00:05:56.157Z,97699.84
2022-12-11T00:08:24.056Z,97698.31
2022-12-11T00:10:51.929Z,97700.03
2022-12-11T00:13:19.803Z,97705.53
2022-12-11T00:15:47.634Z,97697.66
2022-12-11T00:18:15.691Z,97702.81
2022-12-11T00:20:43.914Z,97704.66
2022-12-11T00:23:12.268Z,97706.84
2022-12-11T00:25:47.513Z,97701.94
2022-12-11T00:28:20.220Z,97706.25
2022-12-11T00:30:48.331Z,97701.66
2022-12-11T00:33:17.352Z,97698.88
2022-12-11T00:35:47.003Z,97699.72
2022-12-11T00:38:20.318Z,97696.22
2022-12-11T00:40:49.159Z,97694.41
2022-12-11T00:43:17.995Z,97692.50
2022-12-11T00:45:47.451Z,97699.72
2022-12-11T00:48:15.440Z,97692.13
2022-12-11T00:50:43.429Z,97696.34
2022-12-11T00:53:11.283Z,97697.06
2022-12-11T00:55:40.806Z,97700.25
2022-12-11T00:58:09.323Z,97701.22
2022-12-11T01:00:38.086Z,97710.47
2022-12-11T01:03:07.686Z,97708.56
2022-12-11T01:05:35.830Z,97722.91
2022-12-11T01:08:03.928Z,97723.91
2022-12-11T01:10:32.381Z,97735.34
2022-12-11T01:13:06.191Z,97730.31
2022-12-11T01:15:41.613Z,97729.63
2022-12-11T01:18:12.497Z,97731.22
2022-12-11T01:20:42.688Z,97728.09
2022-12-11T01:23:13.197Z,97725.31
2022-12-11T01:25:41.550Z,97732.53
2022-12-11T01:28:10.101Z,97739.16
2022-12-11T01:30:41.424Z,97734.34
2022-12-11T01:33:09.707Z,97736.94
2022-12-11T01:35:39.549Z,97742.75
2022-12-11T01:38:07.493Z,97733.84
2022-12-11T01:40:35.299Z,97731.53
2022-12-11T01:43:03.603Z,97732.94
2022-12-11T01:45:40.288Z,97738.75
2022-12-11T01:48:18.873Z,97738.44
2022-12-11T01:50:56.798Z,97734.16
2022-12-11T01:53:37.523Z,97744.47
2022-12-11T01:56:06.915Z,97740.56
2022-12-11T01:58:44.667Z,97742.38
2022-12-11T02:01:19.046Z,97741.78
2022-12-11T02:03:47.453Z,97739.16
2022-12-11T02:06:34.025Z,97740.56
2022-12-11T02:09:03.601Z,97742.06
2022-12-11T02:11:56.213Z,97735.34
2022-12-11T02:14:48.892Z,97741.53
2022-12-11T02:17:23.852Z,97733.72
2022-12-11T02:20:06.917Z,97738.53
2022-12-11T02:22:51.869Z,97731.94
2022-12-11T02:25:35.090Z,97734.66
2022-12-11T02:28:19.205Z,97732.34
2022-12-11T02:30:52.582Z,97726.03
2022-12-11T02:33:49.522Z,97724.09
2022-12-11T02:36:20.191Z,97735.75
2022-12-11T02:38:52.113Z,97735.94
2022-12-11T02:41:22.784Z,97737.53
2022-12-11T02:43:52.068Z,97732.13
2022-12-11T02:46:22.320Z,97740.47
2022-12-11T02:48:51.986Z,97750.19
2022-12-11T02:51:25.686Z,97742.06
2022-12-11T02:53:58.524Z,97744.34
2022-12-11T02:56:34.362Z,97743.94
2022-12-11T02:59:09.428Z,97747.88
2022-12-11T03:01:37.516Z,97755.19
2022-12-11T03:04:05.760Z,97766.63
2022-12-11T03:06:37.796Z,97755.81
2022-12-11T03:09:05.702Z,97749.00
2022-12-11T03:11:33.682Z,97761.50
2022-12-11T03:14:05.546Z,97767.41
2022-12-11T03:16:38.972Z,97759.69
2022-12-11T03:19:21.339Z,97761.22
2022-12-11T03:22:00.531Z,97755.31
2022-12-11T03:24:51.594Z,97762.63
2022-12-11T03:27:25.508Z,97756.50
2022-12-11T03:30:07.671Z,97762.94
2022-12-11T03:32:52.253Z,97756.22
2022-12-11T03:35:29.849Z,97750.81
2022-12-11T03:38:06.812Z,97758.22
2022-12-11T03:40:37.168Z,97760.22
2022-12-11T03:43:07.185Z,97739.97
2022-12-11T03:45:38.577Z,97749.97
2022-12-11T03:48:10.006Z,97741.78
2022-12-11T03:50:39.978Z,97751.16
2022-12-11T03:53:08.252Z,97756.22
2022-12-11T03:55:38.431Z,97749.09
2022-12-11T03:58:06.601Z,97759.19
2022-12-11T04:00:34.733Z,97761.00
2022-12-11T04:03:15.100Z,97755.50
2022-12-11T04:05:52.028Z,97760.22
2022-12-11T04:08:21.793Z,97754.59
2022-12-11T04:11:10.915Z,97754.78
2022-12-11T04:13:40.893Z,97748.50
2022-12-11T04:16:09.090Z,97748.59
2022-12-11T04:18:55.619Z,97753.59
2022-12-11T04:21:42.242Z,97745.16
2022-12-11T04:24:16.091Z,97744.25
2022-12-11T04:26:46.234Z,97738.75
2022-12-11T04:29:15.035Z,97747.38
2022-12-11T04:31:42.956Z,97747.38
2022-12-11T04:34:10.826Z,97741.38
2022-12-11T04:36:38.676Z,97748.78
2022-12-11T04:39:06.538Z,97746.06
2022-12-11T04:41:34.545Z,97748.28
2022-12-11T04:44:02.514Z,97737.75
2022-12-11T04:46:31.197Z,97742.38
2022-12-11T04:49:00.476Z,97744.97
2022-12-11T04:51:28.817Z,97734.56
2022-12-11T04:53:58.309Z,97739.75
2022-12-11T04:56:26.208Z,97745.78
2022-12-11T04:58:54.048Z,97747.19
2022-12-11T05:01:22.830Z,97744.88
2022-12-11T05:03:50.886Z,97748.38
2022-12-11T05:06:18.881Z,97750.41
2022-12-11T05:08:46.721Z,97753.69
2022-12-11T05:11:15.968Z,97754.19
2022-12-11T05:13:44.496Z,97767.00
2022-12-11T05:16:16.168Z,97763.16
2022-12-11T05:18:44.416Z,97763.22
2022-12-11T05:21:14.119Z,97758.47
2022-12-11T05:23:42.651Z,97763.06
2022-12-11T05:26:19.630Z,97751.78
2022-12-11T05:28:53.337Z,97766.16
2022-12-11T05:31:24.837Z,97762.38
2022-12-11T05:33:53.625Z,97761.44
2022-12-11T05:36:30.372Z,97756.78
2022-12-11T05:39:00.042Z,97766.50
2022-12-11T05:41:29.879Z,97770.53
2022-12-11T05:43:57.785Z,97770.69
2022-12-11T05:46:28.130Z,97769.88
2022-12-11T05:48:58.469Z,97767.28
2022-12-11T05:51:28.064Z,97774.38
2022-12-11T05:53:56.871Z,97777.22
2022-12-11T05:56:30.191Z,97780.94
2022-12-11T05:58:59.954Z,97784.31
2022-12-11T06:01:46.197Z,97776.38
2022-12-11T06:04:14.231Z,97784.00
2022-12-11T06:06:43.804Z,97787.38
2022-12-11T06:09:14.999Z,97780.56
2022-12-11T06:11:43.520Z,97780.13
2022-12-11T06:14:12.877Z,97781.19
2022-12-11T06:16:40.942Z,97783.28
2022-12-11T06:19:14.425Z,97786.09
2022-12-11T06:21:42.796Z,97788.13
2022-12-11T06:24:11.118Z,97787.25
2022-12-11T06:26:39.128Z,97789.31
2022-12-11T06:29:10.994Z,97793.09
2022-12-11T06:31:40.783Z,97803.78
2022-12-11T06:34:09.310Z,97800.13
2022-12-11T06:36:37.150Z,97801.50
2022-12-11T06:39:05.045Z,97800.00
2022-12-11T06:41:32.897Z,97805.41
2022-12-11T06:44:00.819Z,97800.44
2022-12-11T06:46:28.802Z,97798.06
2022-12-11T06:48:56.731Z,97807.78
2022-12-11T06:51:24.677Z,97799.84
2022-12-11T06:53:54.267Z,97809.31
2022-12-11T06:56:23.690Z,97802.19
2022-12-11T06:58:52.124Z,97807.84
2022-12-11T07:01:22.857Z,97803.09
2022-12-11T07:03:53.972Z,97817.53
2022-12-11T07:06:22.742Z,97821.66
2022-12-11T07:08:50.754Z,97826.59
2022-12-11T07:11:19.721Z,97814.16
2022-12-11T07:13:48.416Z,97824.63
2022-12-11T07:16:17.658Z,97818.88
2022-12-11T07:18:50.556Z,97810.94
2022-12-11T07:21:20.219Z,97824.84
2022-12-11T07:23:49.944Z,97819.13
2022-12-11T07:26:20.578Z,97822.69
2022-12-11T07:28:48.961Z,97828.78
2022-12-11T07:31:25.015Z,97823.25
2022-12-11T07:33:59.152Z,97827.28
2022-12-11T07:36:29.164Z,97816.97
2022-12-11T07:38:57.852Z,97819.50
2022-12-11T07:41:27.824Z,97817.91
2022-12-11T07:43:56.343Z,97810.56
2022-12-11T07:46:26.304Z,97828.38
2022-12-11T07:48:54.397Z,97826.59
2022-12-11T07:51:26.621Z,97832.50
2022-12-11T07:54:00.416Z,97827.59
2022-12-11T07:56:29.588Z,97832.31
2022-12-11T07:59:00.579Z,97834.94
2022-12-11T08:01:30.249Z,97834.03
2022-12-11T08:03:58.424Z,97837.66
2022-12-11T08:06:29.174Z,97832.06
2022-12-11T08:08:58.987Z,97829.78
2022-12-11T08:11:27.717Z,97831.44
2022-12-11T08:13:56.375Z,97834.63
2022-12-11T08:16:24.335Z,97832.09
2022-12-11T08:18:52.315Z,97843.34
2022-12-11T08:21:22.897Z,97840.53
2022-12-11T08:23:51.842Z,97831.16
2022-12-11T08:26:25.461Z,97839.28
2022-12-11T08:28:53.357Z,97839.78
2022-12-11T08:31:21.734Z,97847.88
2022-12-11T08:33:50.519Z,97826.16
2022-12-11T08:36:23.393Z,97847.97
2022-12-11T08:38:51.761Z,97851.19
2022-12-11T08:41:25.928Z,97853.19
2022-12-11T08:43:55.510Z,97845.34
2022-12-11T08:46:25.898Z,97869.34
2022-12-11T08:48:56.283Z,97863.81
2022-12-11T08:51:28.406Z,97857.09
2022-12-11T08:54:01.151Z,97859.72
2022-12-11T08:56:29.931Z,97861.75
2022-12-11T08:59:01.092Z,97858.91
2022-12-11T09:01:29.654Z,97873.44
2022-12-11T09:03:57.781Z,97862.50
2022-12-11T09:06:28.048Z,97867.69
2022-12-11T09:08:56.489Z,97874.03
2022-12-11T09:11:27.999Z,97879.28
2022-12-11T09:13:55.910Z,97873.75
2022-12-11T09:16:25.655Z,97869.09
2022-12-11T09:18:56.285Z,97871.72
2022-12-11T09:21:27.474Z,97862.16
2022-12-11T09:23:58.081Z,97862.38
2022-12-11T09:26:27.545Z,97864.19
2022-12-11T09:28:55.511Z,97866.47
2022-12-11T09:31:26.357Z,97858.97
2022-12-11T09:33:56.836Z,97853.94
2022-12-11T09:36:24.834Z,97850.38
2022-12-11T09:38:52.822Z,97849.16
2022-12-11T09:41:20.602Z,97856.81
2022-12-11T09:44:13.739Z,97861.19
2022-12-11T09:46:42.608Z,97857.81
2022-12-11T09:49:41.743Z,97851.34
2022-12-11T09:52:20.530Z,97859.34
2022-12-11T09:54:58.503Z,97847.88
2022-12-11T09:58:08.078Z,97860.69
2022-12-11T10:00:58.529Z,97847.94
2022-12-11T10:03:39.117Z,97859.34
2022-12-11T10:06:09.896Z,97850.50
2022-12-11T10:08:48.008Z,97849.09
2022-12-11T10:11:56.744Z,97847.91
2022-12-11T10:14:31.956Z,97836.06
2022-12-11T10:17:07.169Z,97842.97
2022-12-11T10:19:35.706Z,97838.47
2022-12-11T10:22:04.047Z,97841.25
2022-12-11T10:27:40.981Z,97825.25
2022-12-11T10:30:21.743Z,97823.06
2022-12-11T10:33:04.754Z,97827.16
2022-12-11T10:35:41.685Z,97836.19
2022-12-11T10:38:31.666Z,97832.88
2022-12-11T10:41:06.046Z,97832.31
2022-12-11T10:43:42.973Z,97828.94
2022-12-11T10:46:24.237Z,97833.88
2022-12-11T10:49:01.861Z,97828.13
2022-12-11T10:51:32.426Z,97818.09
2022-12-11T10:54:17.719Z,97825.41
2022-12-11T10:56:48.603Z,97819.91
2022-12-11T10:59:46.528Z,97827.25
2022-12-11T11:02:34.783Z,97808.97
2022-12-11T11:05:17.038Z,97815.38
2022-12-11T11:07:45.003Z,97815.25
2022-12-11T11:10:13.632Z,97806.13
2022-12-11T11:12:45.410Z,97804.38
2022-12-11T11:15:18.243Z,97803.59
2022-12-11T11:17:55.506Z,97806.78
2022-12-11T11:20:27.510Z,97801.50
2022-12-11T11:22:58.567Z,97797.16
2022-12-11T11:25:29.265Z,97800.38
2022-12-11T11:28:15.511Z,97800.66
2022-12-11T11:31:05.673Z,97796.91
2022-12-11T11:33:37.000Z,97793.50
2022-12-11T11:36:07.197Z,97793.72
2022-12-11T11:38:59.506Z,97790.81
2022-12-11T11:41:54.751Z,97794.66
2022-12-11T11:44:33.083Z,97792.78
2022-12-11T11:47:10.755Z,97792.00
2022-12-11T11:49:47.805Z,97780.50
2022-12-11T11:52:17.378Z,97797.53
2022-12-11T11:55:10.331Z,97787.94
2022-12-11T11:58:03.800Z,97786.00
2022-12-11T12:00:33.971Z,97777.22
2022-12-11T12:03:19.205Z,97777.97
2022-12-11T12:05:52.346Z,97778.22
2022-12-11T12:08:33.321Z,97779.97
2022-12-11T12:11:29.171Z,97769.41
2022-12-11T12:14:35.879Z,97780.97
2022-12-11T12:17:09.724Z,97779.59
2022-12-11T12:19:46.900Z,97774.19
2022-12-11T12:22:34.354Z,97784.09
2022-12-11T12:25:36.189Z,97776.69
2022-12-11T12:28:22.064Z,97781.44
2022-12-11T12:31:13.186Z,97775.53
2022-12-11T12:34:16.764Z,97780.91
2022-12-11T12:36:44.558Z,97783.00
2022-12-11T12:39:50.167Z,97788.50
2022-12-11T12:42:31.205Z,97787.69
2022-12-11T12:45:14.689Z,97787.06
2022-12-11T12:47:51.868Z,97780.69
2022-12-11T12:50:24.614Z,97771.94
2022-12-11T12:52:54.252Z,97779.94
2022-12-11T12:55:28.985Z,97782.56
2022-12-11T12:58:00.579Z,97779.03
2022-12-11T13:00:38.622Z,97780.91
2022-12-11T13:03:30.353Z,97780.47
2022-12-11T13:06:00.000Z,97773.56
2022-12-11T13:08:31.650Z,97772.59
2022-12-11T13:11:06.709Z,97766.19
2022-12-11T13:13:41.166Z,97766.38
2022-12-11T13:16:15.040Z,97773.53
2022-12-11T13:18:44.884Z,97770.25
2022-12-11T13:21:55.113Z,97766.50
2022-12-11T13:24:22.938Z,97766.72
2022-12-11T13:26:51.035Z,97768.78
2022-12-11T13:29:36.739Z,97766.72
2022-12-11T13:32:10.418Z,97766.13
2022-12-11T13:34:41.234Z,97768.28
2022-12-11T13:37:33.054Z,97777.56
2022-12-11T13:40:05.909Z,97777.63
2022-12-11T13:42:47.661Z,97769.03
2022-12-11T13:45:33.146Z,97762.09
2022-12-11T13:48:01.717Z,97757.81
2022-12-11T13:50:32.403Z,97769.78
2022-12-11T13:53:01.907Z,97764.34
2022-12-11T13:55:33.152Z,97776.97
2022-12-11T13:58:01.295Z,97776.28
2022-12-11T14:00:32.160Z,97778.88
2022-12-11T14:03:07.469Z,97781.44
2022-12-11T14:05:35.697Z,97779.72
2022-12-11T14:08:10.895Z,97773.63
2022-12-11T14:10:40.157Z,97777.06
2022-12-11T14:13:25.618Z,97772.34
2022-12-11T14:15:54.595Z,97772.13
2022-12-11T14:18:26.445Z,97776.19
2022-12-11T14:21:05.592Z,97778.81
2022-12-11T14:23:36.265Z,97777.50
2022-12-11T14:26:20.174Z,97776.81
2022-12-11T14:28:48.377Z,97781.22
2022-12-11T14:31:23.575Z,97779.56
2022-12-11T14:33:57.547Z,97780.44
2022-12-11T14:36:26.957Z,97778.41
2022-12-11T14:39:18.691Z,97787.81
2022-12-11T14:41:52.723Z,97789.31
2022-12-11T14:44:25.074Z,97779.84
2022-12-11T14:47:00.934Z,97797.72
2022-12-11T14:49:50.262Z,97793.34
2022-12-11T14:52:26.971Z,97783.63
2022-12-11T14:55:01.901Z,97789.31
2022-12-11T14:57:33.647Z,97793.28
2022-12-11T15:00:04.725Z,97791.50
2022-12-11T15:02:36.054Z,97793.44
2022-12-11T15:05:19.297Z,97801.44
2022-12-11T15:08:00.869Z,97793.06
2022-12-11T15:10:54.316Z,97796.94
2022-12-11T15:13:25.791Z,97795.09
2022-12-11T15:15:55.975Z,97795.47
2022-12-11T15:18:34.103Z,97795.47
2022-12-11T15:21:09.959Z,97799.34
2022-12-11T15:23:46.912Z,97792.78
2022-12-11T15:26:15.090Z,97792.06
2022-12-11T15:28:43.105Z,97798.25
2022-12-11T15:31:30.186Z,97796.50
2022-12-11T15:33:59.119Z,97802.84
2022-12-11T15:36:35.092Z,97792.06
2022-12-11T15:39:05.624Z,97789.97
2022-12-11T15:41:34.712Z,97798.59
2022-12-11T15:44:04.209Z,97790.50
2022-12-11T15:46:36.387Z,97797.72
2022-12-11T15:49:12.120Z,97801.25
2022-12-11T15:51:43.049Z,97804.06
2022-12-11T15:54:11.961Z,97795.28
2022-12-11T15:56:40.036Z,97803.78
2022-12-11T15:59:08.090Z,97800.22
2022-12-11T16:01:36.022Z,97806.28
2022-12-11T16:04:05.310Z,97799.09
2022-12-11T16:06:34.403Z,97797.28
2022-12-11T16:09:04.068Z,97795.97
2022-12-11T16:11:31.995Z,97798.84
2022-12-11T16:14:03.451Z,97794.59
2022-12-11T16:16:31.914Z,97797.56
2022-12-11T16:19:00.751Z,97806.84
2022-12-11T16:21:28.593Z,97807.81
2022-12-11T16:23:56.590Z,97800.88
2022-12-11T16:26:24.432Z,97812.09
2022-12-11T16:28:53.086Z,97795.06
2022-12-11T16:31:20.975Z,97805.03
2022-12-11T16:33:48.926Z,97803.66
2022-12-11T16:36:18.858Z,97800.56
2022-12-11T16:38:53.474Z,97798.94
2022-12-11T16:41:23.372Z,97804.75
2022-12-11T16:43:51.530Z,97802.41
2022-12-11T16:46:21.014Z,97803.06
2022-12-11T16:48:49.429Z,97811.31
2022-12-11T16:51:18.003Z,97810.84
2022-12-11T16:53:46.374Z,97810.72
2022-12-11T16:56:14.457Z,97808.72
2022-12-11T16:58:42.407Z,97809.97
2022-12-11T17:01:15.470Z,97794.69
2022-12-11T17:03:44.199Z,97810.81
2022-12-11T17:06:14.394Z,97809.38
2022-12-11T17:08:43.240Z,97811.63
2022-12-11T17:11:17.501Z,97811.28
2022-12-11T17:13:46.267Z,97811.78
2022-12-11T17:16:16.456Z,97814.84
2022-12-11T17:18:44.840Z,97816.00
2022-12-11T17:21:16.047Z,97816.09
2022-12-11T17:23:45.300Z,97815.06
2022-12-11T17:26:13.149Z,97820.66
2022-12-11T17:28:41.049Z,97825.47
2022-12-11T17:31:13.672Z,97821.13
2022-12-11T17:33:41.859Z,97831.16
2022-12-11T17:36:14.532Z,97828.38
2022-12-11T17:38:42.487Z,97828.28
2022-12-11T17:41:16.931Z,97823.91
2022-12-11T17:43:50.332Z,97826.56
2022-12-11T17:46:19.059Z,97815.94
2022-12-11T17:48:47.914Z,97827.38
2022-12-11T17:51:21.912Z,97828.53
2022-12-11T17:53:51.044Z,97827.59
2022-12-11T17:56:20.322Z,97833.00
2022-12-11T17:58:48.564Z,97827.59
2022-12-11T18:01:16.674Z,97832.19
2022-12-11T18:03:44.668Z,97835.84
2022-12-11T18:06:15.148Z,97840.91
2022-12-11T18:08:44.376Z,97841.34
2022-12-11T18:11:18.046Z,97839.75
2022-12-11T18:13:46.901Z,97833.13
2022-12-11T18:16:17.395Z,97842.16
2022-12-11T18:18:47.181Z,97844.00
2022-12-11T18:21:18.319Z,97847.41
2022-12-11T18:23:46.353Z,97844.13
2022-12-11T18:26:14.700Z,97842.81
2022-12-11T18:28:43.520Z,97852.50
2022-12-11T18:31:13.539Z,97856.06
2022-12-11T18:33:43.832Z,97852.16
2022-12-11T18:36:15.102Z,97853.72
2022-12-11T18:38:44.031Z,97852.78
2022-12-11T18:41:13.254Z,97853.25
2022-12-11T18:43:42.248Z,97855.84
2022-12-11T18:46:14.330Z,97855.44
2022-12-11T18:48:43.607Z,97861.50
2022-12-11T18:51:15.040Z,97852.03
2022-12-11T18:53:43.119Z,97859.41
2022-12-11T18:56:13.838Z,97864.19
2022-12-11T18:58:42.688Z,97858.34
2022-12-11T19:01:18.506Z,97858.09
2022-12-11T19:03:46.613Z,97858.88
2022-12-11T19:06:17.571Z,97855.66
2022-12-11T19:08:46.043Z,97860.53
2022-12-11T19:11:18.197Z,97862.78
2022-12-11T19:13:46.865Z,97863.19
2022-12-11T19:16:19.788Z,97856.41
2022-12-11T19:18:48.628Z,97849.34
2022-12-11T19:21:18.783Z,97857.88
2022-12-11T19:23:47.305Z,97849.00
2022-12-11T19:26:21.062Z,97847.59
2022-12-11T19:28:50.750Z,97848.34
2022-12-11T19:31:22.140Z,97850.41
2022-12-11T19:33:50.221Z,97848.16
2022-12-11T19:36:22.635Z,97852.63
2022-12-11T19:38:51.861Z,97848.53
2022-12-11T19:41:26.701Z,97840.34
2022-12-11T19:43:56.388Z,97845.75
2022-12-11T19:46:25.962Z,97841.94
2022-12-11T19:48:55.738Z,97856.59
2022-12-11T19:51:33.800Z,97848.09
2022-12-11T19:54:02.975Z,97854.75
2022-12-11T19:56:31.821Z,97856.25
2022-12-11T19:59:03.452Z,97852.56
2022-12-11T20:01:33.943Z,97863.06
2022-12-11T20:04:05.582Z,97854.44
2022-12-11T20:06:35.402Z,97858.28
2022-12-11T20:09:05.338Z,97860.41
2022-12-11T20:11:33.590Z,97855.44
2022-12-11T20:14:01.588Z,97855.06
2022-12-11T20:16:53.840Z,97853.53
2022-12-11T20:19:17.396Z,97851.38
2022-12-11T20:21:45.226Z,97855.31
2022-12-11T20:24:13.125Z,97856.88
2022-12-11T20:26:41.196Z,97856.66
2022-12-11T20:29:09.121Z,97861.59
2022-12-11T20:31:37.133Z,97865.03
2022-12-11T20:34:05.901Z,97867.16
2022-12-11T20:36:33.977Z,97859.19
2022-12-11T20:39:01.846Z,97865.78
2022-12-11T20:41:29.824Z,97866.59
2022-12-11T20:43:57.796Z,97871.28
2022-12-11T20:46:27.342Z,97861.56
2022-12-11T20:48:58.500Z,97862.69
2022-12-11T20:51:28.083Z,97864.03
2022-12-11T20:53:59.078Z,97872.47
2022-12-11T20:56:29.764Z,97871.00
2022-12-11T20:58:58.914Z,97865.75
2022-12-11T21:01:29.795Z,97867.84
2022-12-11T21:03:58.565Z,97863.56
2022-12-11T21:06:31.060Z,97850.28
2022-12-11T21:09:14.298Z,97872.28
2022-12-11T21:11:42.371Z,97846.38
2022-12-11T21:14:10.498Z,97870.78
2022-12-11T21:16:38.468Z,97861.75
2022-12-11T21:19:10.118Z,97868.00
2022-12-11T21:21:41.949Z,97863.03
2022-12-11T21:24:17.258Z,97853.44
2022-12-11T21:26:46.632Z,97855.13
2022-12-11T21:29:15.167Z,97852.34
2022-12-11T21:31:43.336Z,97860.34
2022-12-11T21:34:11.330Z,97861.06
2022-12-11T21:36:39.498Z,97861.69
2022-12-11T21:39:08.616Z,97858.94
2022-12-11T21:41:36.504Z,97860.50
2022-12-11T21:46:52.614Z,97844.16
2022-12-11T21:49:20.740Z,97853.97
2022-12-11T21:51:48.709Z,97850.28
2022-12-11T21:54:18.439Z,97852.63
2022-12-11T21:56:46.742Z,97854.13
2022-12-11T21:59:14.898Z,97847.38
2022-12-11T22:01:48.651Z,97852.09
2022-12-11T22:04:17.068Z,97849.06
2022-12-11T22:06:47.117Z,97858.66
2022-12-11T22:09:17.844Z,97851.53
2022-12-11T22:11:46.319Z,97850.06
2022-12-11T22:14:16.806Z,97857.97
2022-12-11T22:16:45.339Z,97853.44
2022-12-11T22:19:13.553Z,97866.06
2022-12-11T22:21:41.610Z,97864.78
2022-12-11T22:24:09.528Z,97865.44
2022-12-11T22:26:39.118Z,97867.25
2022-12-11T22:29:07.338Z,97863.09
2022-12-11T22:31:35.181Z,97868.81
2022-12-11T22:34:03.121Z,97864.44
2022-12-11T22:36:31.015Z,97863.09
2022-12-11T22:39:00.253Z,97846.88
2022-12-11T22:41:30.890Z,97856.59
2022-12-11T22:43:59.712Z,97850.41
2022-12-11T22:46:30.725Z,97854.34
2022-12-11T22:48:59.505Z,97852.31
2022-12-11T22:51:27.440Z,97853.94
2022-12-11T22:53:55.340Z,97848.06
2022-12-11T22:56:23.280Z,97861.69
2022-12-11T22:58:51.182Z,97856.81
2022-12-11T23:01:22.626Z,97856.97
2022-12-11T23:03:50.937Z,97849.13
2022-12-11T23:06:21.995Z,97859.47
2022-12-11T23:08:50.089Z,97860.84
2022-12-11T23:11:22.662Z,97855.91
2022-12-11T23:13:50.553Z,97859.28
2022-12-11T23:16:18.480Z,97854.13
2022-12-11T23:18:46.475Z,97857.84
2022-12-11T23:21:15.526Z,97849.81
2022-12-11T23:23:43.460Z,97845.31
2022-12-11T23:26:13.245Z,97850.72
2022-12-11T23:28:41.433Z,97856.13
2022-12-11T23:31:09.702Z,97854.84
2022-12-11T23:33:38.199Z,97866.16
2022-12-11T23:36:06.506Z,97864.88
2022-12-11T23:38:34.430Z,97865.34
2022-12-11T23:41:03.816Z,97870.25
2022-12-11T23:43:32.694Z,97866.25
2022-12-11T23:46:00.793Z,97859.97
2022-12-11T23:48:28.767Z,97865.66
2022-12-11T23:51:01.019Z,97868.38
2022-12-11T23:53:29.189Z,97865.38
2022-12-11T23:56:03.062Z,97856.13
2022-12-11T23:58:31.022Z,97868.13
